Wednesday, January 17, 2018, 6:34 AM EST
Back to Local

KADW, Camp Springs / Andrews Air Force Base

Location: Andrews Air Force Base, MD, United States Lat: 38.817
Local Time: 6:34 AM EST (11:34 GMT) Lon: -76.85
Time Zone: US/Eastern Elev: 282 ft

Show me the last for .
Show Decoded

2018-01-17 06:09 METAR KADW 171109Z AUTO 31014KT 5SM -SN BR FEW009 OVC016 M03/M05 A3034 RMK AO2
                 CIG 012 RWY19L SLP284 $ =
2018-01-17 05:59 METAR KADW 171059Z AUTO 31013KT 3SM R01R/6000FT -SN BR FEW009 OVC012 M02/M04
                 A3035 RMK AO2 VIS 2 1/2 RWY01L VIS 2 1/2 RWY01L/19R VIS 2 1/4 RWY19L VIS 2 1/4
                 RWY19R SLP287 $ =
2018-01-17 05:56 METAR KADW 171056Z AUTO 31015KT 2 1/2SM R01R/5500FT -SN BR SCT008 OVC012 M02/M04
                 A3035 RMK AO2 VIS 1 7/8 RWY19L VIS 2 RWY19R CIG 010 RWY19L SLP287 P0001
                 T10231040 $ =
2018-01-17 05:53 METAR KADW 171053Z AUTO 31014G20KT 2 1/4SM R01R/5500FT -SN BR FEW008 OVC012
                 M02/M04 A3035 RMK AO2 VIS 2 1/4V4 VIS 1 3/4 RWY19L CIG 010 RWY19L SLP287 $ =
2018-01-17 05:49 METAR KADW 171049Z AUTO 32013G20KT 2 1/4SM R01R/5000FT -SN BR OVC010 M02/M04
                 A3035 RMK AO2 VIS 2 1/4V5 SLP287 $ =
2018-01-17 05:47 METAR KADW 171047Z AUTO 32015G20KT 2 1/2SM R01R/5500FT -SN BR OVC010 M02/M04
                 A3035 RMK AO2 VIS 2 1/2V5 VIS 2 RWY19L VIS 2 RWY19R PRESRR SLP287 $ =
2018-01-17 05:32 METAR KADW 171032Z AUTO 31012KT 3SM R01R/6000FT -SN BR OVC010 M01/M03 A3033 RMK
                 AO2 SLP280 $ =
2018-01-17 05:30 METAR KADW 171030Z AUTO 31013G17KT 2 3/4SM R01R/6000FT -SN BR OVC010 M01/M03
                 A3033 RMK AO2 VIS 2V2 3/4 SLP280 $ =
2018-01-17 05:24 METAR KADW 171024Z AUTO 32010KT 2 1/4SM R01R/5500FT -SN BR OVC010 M01/M03 A3033
                 RMK AO2 VIS 1 5/8V2 1/4 SLP280 $ =
2018-01-17 05:20 METAR KADW 171020Z AUTO 31010KT 2SM R01R/5000FT -SN BR OVC012 M01/M03 A3033 RMK
                 AO2 CIG 010 RWY19L SLP280 $ =
2018-01-17 05:08 METAR KADW 171008Z AUTO 32010KT 1 7/8SM R01R/4500FT -SN BR OVC012 M01/M03 A3032
                 RMK AO2 VIS 1 7/8V3 CIG 009 RWY19L SLP277 $ =
2018-01-17 05:05 METAR KADW 171005Z AUTO 32010KT 2 1/4SM R01R/5000FT -SN BR OVC012 M01/M02 A3032
                 RMK AO2 VIS 2 1/4V3 VIS 1 3/4 RWY19L CIG 009 RWY19L SLP277 $ =
2018-01-17 05:03 METAR KADW 171003Z AUTO 32010KT 2 1/2SM R01R/5500FT -SN BR OVC012 M01/M02 A3031
                 RMK AO2 VIS 2 1/2V3 VIS 2 RWY19L CIG 009 RWY19L SLP274 $ =
2018-01-17 05:02 METAR KADW 171002Z AUTO 32010KT 2 3/4SM R01R/6000FT -SN BR OVC012 M01/M02 A3031
                 RMK AO2 VIS 2 RWY19L CIG 009 RWY19L SLP274 $ =
2018-01-17 04:56 METAR KADW 170956Z AUTO 31010KT 3SM -SN BR OVC012 M01/M02 A3031 RMK AO2 VIS 2
                 1/4 RWY19L CIG 009 RWY19L SLP274 P0000 T10101023 $ =
2018-01-17 04:54 METAR KADW 170954Z AUTO 32012KT 3SM R01R/6000FT -SN BR OVC012 M01/M02 A3031 RMK
                 AO2 VIS 2 1/4 RWY19L CIG 009 RWY19L SLP274 $ =
2018-01-17 04:51 METAR KADW 170951Z AUTO 32010KT 2 3/4SM R01R/6000FT -SN BR OVC012 M01/M02 A3031
                 RMK AO2 VIS 2 1/2V3 VIS 2 1/4 RWY19L CIG 009 RWY19L SLP274 $ =
2018-01-17 04:47 METAR KADW 170947Z AUTO 32009KT 2 1/2SM R01R/5500FT -SN BR OVC010 M01/M02 A3031
                 RMK AO2 VIS 2 1/2V3 CIG 009 RWY19L SLP274 $ =
2018-01-17 04:43 METAR KADW 170943Z AUTO 32009KT 2 3/4SM R01R/6000FT -SN BR OVC010 M01/M02 A3031
                 RMK AO2 CIG 009 RWY19L SLP274 $ =
2018-01-17 03:56 METAR KADW 170856Z AUTO 32008KT 3SM -SN BR OVC010 M01/M02 A3030 RMK AO2 VIS 2
                 1/2 RWY19L SLP270 P0000 60000 T10061020 50003 $ =
2018-01-17 03:48 METAR KADW 170848Z AUTO 32008KT 3SM R01R/6000FT -SN BR OVC009 00/M02 A3030 RMK
                 AO2 VIS 2 1/2 RWY19L SLP270 $ =
2018-01-17 03:33 METAR KADW 170833Z AUTO 32009KT 3SM R01R/6000FT -SN BR OVC010 00/M02 A3030 RMK
                 AO2 VIS 2 1/4 RWY19L SLP270 $ =
2018-01-17 03:25 METAR KADW 170825Z AUTO 32011KT 2 3/4SM R01R/6000FT -SN BR OVC011 00/M02 A3031
                 RMK AO2 VIS 2 1/4 RWY19L SLP273 $ =
2018-01-17 03:17 METAR KADW 170817Z 32009KT 3SM R01R/6000FT -SN BR OVC011 00/M02 A3031 RMK AO2A
                 VIS 2 1/2 RWY01L VIS 2 1/2 RWY19L SLP273 $ =
2018-01-17 03:14 METAR KADW 170814Z 33007KT 2 3/4SM R01R/6000FT -SN BR OVC011 00/M02 A3031 RMK
                 AO2A SLP273 $ =
2018-01-17 02:56 METAR KADW 170756Z 32010KT 4SM -SN BR OVC011 00/M02 A3031 RMK AO2A
                 SNE0656SNB21E26RAB26E32SNB32 CIG 010 RWY19L SLP273 P0000 T00011018 $ =
2018-01-17 02:36 METAR KADW 170736Z 33008KT 8SM -SN BKN010 01/M02 A3031 RMK AO2A
                 SNE0656SNB21E26RAB26E32SNB32 SLP273 $ =
2018-01-17 02:21 METAR KADW 170721Z 32008KT 10SM -SN SCT009 BKN060 01/M02 A3030 RMK AO2A
                 SNE0656UPB21 SLP270 $ =
2018-01-17 02:16 METAR KADW 170716Z 32010KT 10SM SCT009 BKN060 01/M02 A3030 RMK AO2A SNE0656
                 SLP270 $ =
2018-01-17 02:11 METAR KADW 170711Z AUTO 33009KT 10SM BKN009 OVC060 01/M01 A3030 RMK AO2 SLP270 $
                 =
2018-01-17 01:56 METAR KADW 170656Z COR 31010KT 10SM -SN BKN060 01/M02 A3030 RMK AO2 SNB12E46
                 SLP270 P0000 T00081018 $ COR 0715 =
2018-01-17 01:46 METAR KADW 170646Z COR 31007KT 10SM -SN FEW060 01/M02 A3030 RMK AO2 SNB12E46
                 SLP270 $ COR 0714 =
2018-01-17 01:42 METAR KADW 170642Z AUTO 30008KT 10SM -UP FEW060 01/M02 A3030 RMK AO2 UPB12
                 SLP270 $ =
2018-01-17 00:56 METAR KADW 170556Z AUTO 32010KT 10SM CLR 02/M03 A3030 RMK AO2 SLP270 T00171028
                 10020 21001 58010 $ =
2018-01-16 23:56 METAR KADW 170456Z AUTO 32003KT 10SM CLR 01/M02 A3032 RMK AO2 SLP277 T00131016
                 400561026 $ =
2018-01-16 22:56 METAR KADW 170356Z AUTO 03003KT 10SM CLR 01/M03 A3032 RMK AO2 SLP277 T00071027 $
                 =
2018-01-16 21:56 METAR KADW 170256Z AUTO 00000KT 10SM CLR 00/M03 A3033 RMK AO2 SLP281 T00031034
                 57006 $ =
2018-01-16 20:56 METAR KADW 170156Z AUTO 00000KT 10SM CLR 00/M04 A3034 RMK AO2 SLP284 T00041041 $
                 =
2018-01-16 19:56 METAR KADW 170056Z AUTO 00000KT 10SM CLR 00/M04 A3034 RMK AO2 SLP284 T00041042 $
                 =
2018-01-16 18:56 METAR KADW 162356Z AUTO 26003KT 10SM CLR 01/M04 A3034 RMK AO2 SLP284 T00091043
                 10056 20004 50002 $ =
2018-01-16 17:56 METAR KADW 162256Z AUTO 00000KT 10SM CLR 02/M04 A3035 RMK AO2 SLP287 T00171042 $
                 =
2018-01-16 16:56 METAR KADW 162156Z AUTO 00000KT 10SM CLR 03/M04 A3035 RMK AO2 SLP287 T00311041 $
                 =
2018-01-16 15:56 METAR KADW 162056Z AUTO 13004KT 10SM CLR 05/M04 A3034 RMK AO2 SLP284 T00481045
                 57019 $ =
2018-01-16 14:56 METAR KADW 161956Z AUTO 00000KT 10SM CLR 05/M06 A3035 RMK AO2 SLP287 T00541065 $
                 =
2018-01-16 13:56 METAR KADW 161856Z AUTO 15004KT 10SM CLR 05/M05 A3037 RMK AO2 SLP294 T00541053 $
                 =
2018-01-16 12:56 METAR KADW 161756Z AUTO 00000KT 10SM FEW170 04/M04 A3039 RMK AO2 SLP301 60002
                 T00361041 10036 21025 57025 $ =
2018-01-16 11:56 METAR KADW 161656Z AUTO 00000KT 10SM CLR 02/M03 A3043 RMK AO2 SLP315 T00241035 $
                 =
2018-01-16 11:01 METAR KADW 161601Z 12003KT 10SM SCT010 BKN200 01/M03 A3045 RMK AO2A SLP322 $ =
2018-01-16 10:56 METAR KADW 161556Z 10004KT 10SM BKN009 01/M03 A3045 RMK AO2A SLP322 T00061028 $
                 =
2018-01-16 10:43 METAR KADW 161543Z 13004KT 10SM BKN009 M01/M03 A3046 RMK AO2A BKN V OVC SLP325
                 RWY19L $ =
2018-01-16 10:23 METAR KADW 161523Z 00000KT 9SM OVC007 M01/M03 A3047 RMK AO2A SLP329 RWY19L $ =
2018-01-16 09:58 METAR KADW 161458Z AUTO 00000KT 10SM OVC006 M01/M02 A3047 RMK AO2 DZE58 SLP329 =
2018-01-16 09:56 METAR KADW 161456Z COR AUTO 00000KT 7SM OVC006 M01/M02 A3047 RMK AO2 DZB51
                 SLP329 T10111022 53002 COR 1509 =
2018-01-16 09:54 METAR KADW 161454Z AUTO 00000KT 10SM -DZ OVC006 M01/M02 A3047 RMK AO2 DZB51
                 SLP329 =
2018-01-16 09:51 METAR KADW 161451Z COR 00000KT 10SM OVC006 M02/M03 A3047 RMK AO2A DZB51 SLP329
                 COR 1455 =
2018-01-16 09:01 METAR KADW 161401Z AUTO 10003KT 10SM OVC005 M02/M03 A3048 RMK AO2 SLP332 =
2018-01-16 08:56 METAR KADW 161356Z AUTO 10003KT 10SM OVC004 M02/M03 A3048 RMK AO2 SLP332
                 T10211029 =
2018-01-16 07:56 METAR KADW 161256Z AUTO 14006KT 10SM OVC004 M02/M03 A3046 RMK AO2 SLP325
                 T10251033 =
2018-01-16 07:36 METAR KADW 161236Z AUTO 17003KT 10SM OVC004 M02/M03 A3046 RMK AO2 SLP325 =
2018-01-16 07:21 METAR KADW 161221Z AUTO 18003KT 10SM OVC003 M02/M03 A3046 RMK AO2 SLP325 =
2018-01-16 06:56 METAR KADW 161156Z AUTO 13004KT 10SM OVC004 M02/M03 A3046 RMK AO2 SLP325
                 T10241032 11022 21026 52008 =

Support USWX by starting your Amazon purchase here.